Time;durP1;ratioP1;P1;durP2;ratioP2;P2;SDS_P1;SDS_P2;PMS_P1;PMS_P2;Temp;Humidity;BMP_temperature;BMP_pressure;BME280_temperature;BME280_humidity;BME280_pressure;Samples;Min_cycle;Max_cycle;Signal;HPM_P1;HPM_P2
2021/09/12 00:00:36;;;;;;;10.52;3.00;;;17.60;99.90;;;;;;5061599;28;20048;-75
2021/09/12 00:03:02;;;;;;;11.30;3.13;;;17.60;99.90;;;;;;5040888;28;20060;-75
2021/09/12 00:05:28;;;;;;;12.23;4.43;;;17.60;99.90;;;;;;5029899;28;20051;-75
2021/09/12 00:07:55;;;;;;;12.20;3.80;;;17.50;99.90;;;;;;5045738;28;20392;-75
2021/09/12 00:10:21;;;;;;;10.57;3.80;;;17.60;99.90;;;;;;5024963;28;20055;-75
2021/09/12 00:12:48;;;;;;;6.50;3.53;;;17.60;99.90;;;;;;5062021;28;20251;-78
2021/09/12 00:15:14;;;;;;;12.75;4.10;;;17.60;99.90;;;;;;5060197;28;20258;-78
2021/09/12 00:17:40;;;;;;;13.85;4.50;;;17.60;99.90;;;;;;5043400;28;20028;-78
2021/09/12 00:20:08;;;;;;;10.95;3.65;;;17.60;99.90;;;;;;5042990;28;20033;-78
2021/09/12 00:22:34;;;;;;;15.18;4.97;;;17.50;99.90;;;;;;5062572;28;20457;-78
2021/09/12 00:25:02;;;;;;;10.77;4.85;;;17.60;99.90;;;;;;5060025;28;20037;-78
2021/09/12 00:27:29;;;;;;;14.07;5.28;;;17.50;99.90;;;;;;5063551;28;20040;-79
2021/09/12 00:30:00;;;;;;;9.73;4.88;;;17.60;99.90;;;;;;5044162;28;20029;-79
2021/09/12 00:32:26;;;;;;;13.40;6.10;;;17.60;99.90;;;;;;5058310;28;20032;-79
2021/09/12 00:34:52;;;;;;;16.92;7.68;;;17.50;99.90;;;;;;5059013;28;20036;-79
2021/09/12 00:37:19;;;;;;;18.40;7.63;;;17.60;99.90;;;;;;5042929;28;20044;-78
2021/09/12 00:39:45;;;;;;;16.17;7.75;;;17.50;99.90;;;;;;5059341;28;20024;-78
2021/09/12 00:42:12;;;;;;;15.52;7.47;;;17.50;99.90;;;;;;5060768;28;20533;-78
2021/09/12 00:44:38;;;;;;;14.48;7.07;;;17.50;99.90;;;;;;5060743;28;20499;-78
2021/09/12 00:47:11;;;;;;;12.38;6.90;;;17.50;99.90;;;;;;5060730;28;20483;-78
2021/09/12 00:49:39;;;;;;;15.25;6.60;;;17.60;99.90;;;;;;5041132;28;20045;-78
2021/09/12 00:52:12;;;;;;;13.80;7.10;;;17.50;99.90;;;;;;5062395;28;20043;-78
2021/09/12 00:54:40;;;;;;;17.73;7.88;;;17.50;99.90;;;;;;5081301;28;20044;-78
2021/09/12 00:57:09;;;;;;;17.05;7.47;;;17.50;99.90;;;;;;5081771;28;20035;-75
2021/09/12 00:59:38;;;;;;;15.75;8.57;;;17.50;99.90;;;;;;5054538;28;20040;-75
2021/09/12 01:02:06;;;;;;;12.68;7.00;;;17.50;99.90;;;;;;5071286;28;20579;-75
2021/09/12 01:04:34;;;;;;;14.95;7.63;;;17.50;99.90;;;;;;5055793;28;20028;-74
2021/09/12 01:07:02;;;;;;;16.92;7.85;;;17.50;99.90;;;;;;5035021;28;20049;-74
2021/09/12 01:09:34;;;;;;;12.90;6.30;;;17.50;99.90;;;;;;5053524;28;20032;-74
2021/09/12 01:12:01;;;;;;;17.90;8.70;;;17.50;99.90;;;;;;5070191;28;20125;-74
2021/09/12 01:14:30;;;;;;;16.27;8.57;;;17.50;99.90;;;;;;5052423;28;20051;-75
2021/09/12 01:16:57;;;;;;;17.52;8.25;;;17.50;99.90;;;;;;5070372;28;20392;-75
2021/09/12 01:19:24;;;;;;;19.13;9.15;;;17.40;99.90;;;;;;5053406;28;20036;-74
2021/09/12 01:21:58;;;;;;;15.90;7.07;;;17.40;99.90;;;;;;5052587;28;20036;-75
2021/09/12 01:24:25;;;;;;;18.77;8.68;;;17.40;99.90;;;;;;5087097;28;20039;-74
2021/09/12 01:26:52;;;;;;;18.08;9.50;;;17.40;99.90;;;;;;5037677;28;20499;-74
2021/09/12 01:29:18;;;;;;;16.63;8.82;;;17.40;99.90;;;;;;5052758;28;20392;-74
2021/09/12 01:31:45;;;;;;;12.95;7.88;;;17.40;99.90;;;;;;5054780;28;20048;-74
2021/09/12 01:34:11;;;;;;;14.55;7.68;;;17.40;99.90;;;;;;5035816;28;20051;-74
2021/09/12 01:36:38;;;;;;;18.40;8.10;;;17.40;99.90;;;;;;5052309;28;20055;-75
2021/09/12 01:39:06;;;;;;;14.23;7.88;;;17.30;99.90;;;;;;5068998;28;20028;-74
2021/09/12 01:41:33;;;;;;;18.02;9.30;;;17.30;99.90;;;;;;5053040;28;20074;-74
2021/09/12 01:44:01;;;;;;;15.18;8.77;;;17.30;99.90;;;;;;5037749;28;20489;-74
2021/09/12 01:46:28;;;;;;;11.57;7.88;;;17.30;99.90;;;;;;5068596;28;20399;-74
2021/09/12 01:48:56;;;;;;;12.20;8.40;;;17.30;99.90;;;;;;5035628;28;20588;-75
2021/09/12 01:51:23;;;;;;;14.48;7.40;;;17.20;99.90;;;;;;5054039;28;20435;-75
2021/09/12 01:53:50;;;;;;;12.60;7.25;;;17.20;99.90;;;;;;5050513;28;20404;-73
2021/09/12 01:56:17;;;;;;;15.52;8.18;;;17.20;99.90;;;;;;5069070;28;20039;-74
2021/09/12 01:58:44;;;;;;;13.10;8.38;;;17.10;99.90;;;;;;5047908;28;20035;-73
2021/09/12 02:01:10;;;;;;;12.80;7.18;;;17.10;99.90;;;;;;5069361;28;20036;-74
2021/09/12 02:03:37;;;;;;;17.50;10.30;;;17.10;99.90;;;;;;5046728;28;20040;-74
2021/09/12 02:06:03;;;;;;;19.55;9.25;;;17.00;99.90;;;;;;5050973;28;20044;-74
2021/09/12 02:08:30;;;;;;;13.85;8.25;;;17.00;99.90;;;;;;5030105;28;20048;-74
2021/09/12 02:10:56;;;;;;;14.70;8.80;;;16.90;99.90;;;;;;5048126;28;20049;-74
2021/09/12 02:13:23;;;;;;;16.92;7.75;;;16.90;99.90;;;;;;5030393;28;20416;-74
2021/09/12 02:15:49;;;;;;;14.35;8.70;;;16.80;99.90;;;;;;5047425;28;20037;-74
2021/09/12 02:18:16;;;;;;;14.02;8.57;;;16.70;99.90;;;;;;5042292;28;20037;-74
2021/09/12 02:20:42;;;;;;;14.55;8.85;;;16.70;99.90;;;;;;5045611;28;20043;-74
2021/09/12 02:23:09;;;;;;;14.77;7.57;;;16.60;99.90;;;;;;5039976;28;20060;-74
2021/09/12 02:25:36;;;;;;;13.90;8.50;;;16.60;99.90;;;;;;5046100;28;20052;-74
2021/09/12 02:28:04;;;;;;;14.95;8.20;;;16.50;99.90;;;;;;5030690;28;20072;-74
2021/09/12 02:30:31;;;;;;;15.02;7.25;;;16.50;99.90;;;;;;5027734;28;20048;-74
2021/09/12 02:32:57;;;;;;;15.52;6.63;;;16.50;99.90;;;;;;5057263;28;20043;-74
2021/09/12 02:35:24;;;;;;;9.80;6.47;;;16.50;99.90;;;;;;5047017;28;20391;-75
2021/09/12 02:37:50;;;;;;;10.20;6.85;;;16.50;99.90;;;;;;5028662;28;20407;-74
2021/09/12 02:40:17;;;;;;;14.40;7.15;;;16.40;99.90;;;;;;5063254;28;20040;-74
2021/09/12 02:42:43;;;;;;;11.55;6.85;;;16.40;99.90;;;;;;5046152;28;20036;-74
2021/09/12 02:45:11;;;;;;;12.88;6.50;;;16.30;99.90;;;;;;5027523;28;20364;-74
2021/09/12 02:47:37;;;;;;;9.48;5.80;;;16.30;99.90;;;;;;5030775;28;20505;-74
2021/09/12 02:50:05;;;;;;;10.75;6.18;;;16.30;99.90;;;;;;5061817;28;20510;-74
2021/09/12 02:52:31;;;;;;;12.07;5.93;;;16.30;99.90;;;;;;5044108;28;20056;-74
2021/09/12 02:54:58;;;;;;;11.45;5.35;;;16.20;99.90;;;;;;5083951;28;20044;-74
2021/09/12 02:57:24;;;;;;;8.18;6.07;;;16.20;99.90;;;;;;5064464;28;20029;-74
2021/09/12 02:59:51;;;;;;;10.02;5.10;;;16.20;99.90;;;;;;5046078;28;20051;-74
2021/09/12 03:02:17;;;;;;;11.30;5.30;;;16.20;99.90;;;;;;5064464;28;20043;-74
2021/09/12 03:04:44;;;;;;;11.48;5.22;;;16.10;99.90;;;;;;5085545;28;20059;-74
2021/09/12 03:07:10;;;;;;;9.07;5.45;;;16.10;99.90;;;;;;5033332;28;20059;-74
2021/09/12 03:09:37;;;;;;;7.57;4.57;;;16.10;99.90;;;;;;5049198;28;20047;-74
2021/09/12 03:12:03;;;;;;;7.95;4.72;;;16.00;99.90;;;;;;5049900;28;20519;-74
2021/09/12 03:14:30;;;;;;;11.07;5.15;;;16.00;99.90;;;;;;5033901;28;20491;-74
2021/09/12 03:16:57;;;;;;;9.25;4.57;;;16.00;99.90;;;;;;5031276;28;20052;-74
2021/09/12 03:19:23;;;;;;;8.27;5.13;;;16.00;99.90;;;;;;5049201;28;20047;-74
2021/09/12 03:21:50;;;;;;;8.55;5.90;;;15.90;99.90;;;;;;5065134;28;20031;-74
2021/09/12 03:24:16;;;;;;;9.82;4.68;;;15.90;99.90;;;;;;5048081;28;20254;-74
2021/09/12 03:26:43;;;;;;;9.73;5.28;;;15.80;99.90;;;;;;5083281;28;20471;-74
2021/09/12 03:29:09;;;;;;;9.07;5.35;;;15.80;99.90;;;;;;5045728;28;20043;-74
2021/09/12 03:31:35;;;;;;;10.75;6.38;;;15.70;99.90;;;;;;5047640;28;20467;-74
2021/09/12 03:34:02;;;;;;;11.50;5.85;;;15.70;99.90;;;;;;5061287;28;20368;-73
2021/09/12 03:36:28;;;;;;;21.30;11.07;;;15.60;99.90;;;;;;5046891;28;20044;-74
2021/09/12 03:38:55;;;;;;;11.82;7.32;;;15.50;99.90;;;;;;5048245;28;20036;-73
2021/09/12 03:41:21;;;;;;;10.80;7.05;;;15.40;99.90;;;;;;5064528;28;20047;-73
2021/09/12 03:43:47;;;;;;;12.85;7.10;;;15.40;99.90;;;;;;5084759;28;20040;-73
2021/09/12 03:46:14;;;;;;;11.32;6.47;;;15.40;99.90;;;;;;5029588;28;20048;-73
2021/09/12 03:48:40;;;;;;;11.48;6.40;;;15.30;99.90;;;;;;5063594;28;20040;-73
2021/09/12 03:51:07;;;;;;;12.05;6.47;;;15.20;99.90;;;;;;5024131;28;20062;-73
2021/09/12 03:53:33;;;;;;;13.93;7.25;;;15.20;99.90;;;;;;5030637;28;20056;-73
2021/09/12 03:56:00;;;;;;;11.05;6.03;;;15.20;99.90;;;;;;5012298;28;20055;-73
2021/09/12 03:58:26;;;;;;;14.70;7.60;;;15.10;99.90;;;;;;5031680;28;20051;-74
2021/09/12 04:00:52;;;;;;;11.18;6.97;;;15.10;99.90;;;;;;5047192;28;20051;-74
2021/09/12 04:03:19;;;;;;;11.07;6.82;;;15.10;99.90;;;;;;5029433;28;20047;-74
2021/09/12 04:05:46;;;;;;;11.45;7.10;;;15.00;99.90;;;;;;5062496;28;20387;-74
2021/09/12 04:08:12;;;;;;;14.43;9.02;;;14.90;99.90;;;;;;5059380;28;20036;-74
2021/09/12 04:10:38;;;;;;;12.68;7.47;;;14.90;99.90;;;;;;5046290;28;20468;-74
2021/09/12 04:13:05;;;;;;;12.38;7.32;;;14.90;99.90;;;;;;5062650;28;20032;-74
2021/09/12 04:15:31;;;;;;;14.80;8.50;;;14.90;99.90;;;;;;5065052;28;20047;-74
2021/09/12 04:17:57;;;;;;;14.38;7.45;;;14.90;99.90;;;;;;5060446;28;20036;-74
2021/09/12 04:20:24;;;;;;;13.32;7.55;;;14.90;99.90;;;;;;5064205;28;20032;-74
2021/09/12 04:22:51;;;;;;;16.48;8.40;;;14.80;99.90;;;;;;5066219;28;20031;-74
2021/09/12 04:25:17;;;;;;;13.55;7.68;;;14.90;99.90;;;;;;5065773;28;20036;-74
2021/09/12 04:27:43;;;;;;;17.55;9.05;;;14.80;99.90;;;;;;5077458;28;20043;-74
2021/09/12 04:30:10;;;;;;;18.23;9.43;;;14.80;99.90;;;;;;5064150;28;20039;-73
2021/09/12 04:32:37;;;;;;;14.45;7.80;;;14.80;99.90;;;;;;5083356;28;20457;-73
2021/09/12 04:35:04;;;;;;;11.40;7.90;;;14.70;99.90;;;;;;5063755;28;20043;-73
2021/09/12 04:37:30;;;;;;;12.40;8.52;;;14.70;99.90;;;;;;5063411;28;20036;-73
2021/09/12 04:39:56;;;;;;;16.90;9.13;;;14.70;99.90;;;;;;5062891;28;20407;-73
2021/09/12 04:42:23;;;;;;;15.65;8.40;;;14.60;99.90;;;;;;5063233;28;20035;-73
2021/09/12 04:44:49;;;;;;;16.33;9.05;;;14.60;99.90;;;;;;5064030;28;20042;-73
2021/09/12 04:47:16;;;;;;;14.00;8.27;;;14.60;99.90;;;;;;5081759;28;20495;-73
2021/09/12 04:49:42;;;;;;;17.25;8.98;;;14.60;99.90;;;;;;5082467;28;20376;-73
2021/09/12 04:52:09;;;;;;;13.65;7.85;;;14.50;99.90;;;;;;5080970;28;20040;-73
2021/09/12 04:54:35;;;;;;;15.90;7.75;;;14.50;99.90;;;;;;5049031;28;20055;-73
2021/09/12 04:57:01;;;;;;;13.50;8.30;;;14.50;99.90;;;;;;5083045;28;20040;-73
2021/09/12 04:59:29;;;;;;;14.40;8.32;;;14.40;99.90;;;;;;5060562;28;20041;-73
2021/09/12 05:01:56;;;;;;;17.33;9.13;;;14.40;99.90;;;;;;5080363;28;20344;-73
2021/09/12 05:04:22;;;;;;;15.52;8.63;;;14.40;99.90;;;;;;5064582;28;20039;-73
2021/09/12 05:06:49;;;;;;;13.88;9.15;;;14.40;99.90;;;;;;5046575;28;20054;-73
2021/09/12 05:09:15;;;;;;;18.15;9.18;;;14.40;99.90;;;;;;5047502;28;20044;-73
2021/09/12 05:11:42;;;;;;;16.27;8.45;;;14.30;99.90;;;;;;5031527;28;20036;-73
2021/09/12 05:14:08;;;;;;;11.63;8.63;;;14.30;99.90;;;;;;5063327;28;20040;-73
2021/09/12 05:16:34;;;;;;;16.08;9.63;;;14.30;99.90;;;;;;5047490;28;20051;-73
2021/09/12 05:19:01;;;;;;;16.42;10.23;;;14.30;99.90;;;;;;5063962;28;20528;-73
2021/09/12 05:21:27;;;;;;;19.05;10.43;;;14.30;99.90;;;;;;5048239;28;20036;-73
2021/09/12 05:23:54;;;;;;;20.92;11.73;;;14.30;99.90;;;;;;5032201;28;20700;-73
2021/09/12 05:26:20;;;;;;;17.33;10.15;;;14.30;99.90;;;;;;5081795;28;20036;-73
2021/09/12 05:28:46;;;;;;;21.98;12.70;;;14.20;99.90;;;;;;5082266;28;20039;-73
2021/09/12 05:31:13;;;;;;;20.80;11.68;;;14.20;99.90;;;;;;5063157;28;20051;-73
2021/09/12 05:33:39;;;;;;;22.83;10.52;;;14.20;99.90;;;;;;5082873;28;20042;-73
2021/09/12 05:36:06;;;;;;;21.00;10.93;;;14.20;99.90;;;;;;5061802;28;20040;-73
2021/09/12 05:38:32;;;;;;;17.25;10.25;;;14.20;99.90;;;;;;5064051;28;20043;-73
2021/09/12 05:40:59;;;;;;;18.83;10.75;;;14.20;99.90;;;;;;5079216;28;20518;-73
2021/09/12 05:43:25;;;;;;;13.90;10.48;;;14.20;99.90;;;;;;5082519;28;20043;-73
2021/09/12 05:45:51;;;;;;;20.23;10.75;;;14.30;99.90;;;;;;5066408;28;20039;-76
2021/09/12 05:48:18;;;;;;;19.05;11.00;;;14.30;99.90;;;;;;5050048;28;20032;-75
2021/09/12 05:50:44;;;;;;;20.40;11.32;;;14.30;99.90;;;;;;5030837;28;20071;-76
2021/09/12 05:53:14;;;;;;;17.35;9.93;;;14.30;99.90;;;;;;5048920;28;20075;-75
2021/09/12 05:55:40;;;;;;;17.40;10.43;;;14.30;99.90;;;;;;5066108;28;20039;-74
2021/09/12 05:58:07;;;;;;;15.90;11.82;;;14.30;99.90;;;;;;5082017;28;20032;-74
2021/09/12 06:00:33;;;;;;;19.48;12.25;;;14.40;99.90;;;;;;5049906;28;20402;-75
2021/09/12 06:02:59;;;;;;;20.48;12.00;;;14.50;99.90;;;;;;5084681;28;20391;-74
2021/09/12 06:05:26;;;;;;;16.13;10.75;;;14.50;99.90;;;;;;5081338;28;20028;-75
2021/09/12 06:07:52;;;;;;;20.88;12.10;;;14.60;99.90;;;;;;5065249;28;21199;-75
2021/09/12 06:10:19;;;;;;;21.60;14.35;;;14.60;99.90;;;;;;5062664;28;20028;-74
2021/09/12 06:12:45;;;;;;;21.10;13.55;;;14.70;99.90;;;;;;5050686;28;20047;-75
2021/09/12 06:15:12;;;;;;;18.50;11.98;;;14.80;99.90;;;;;;5083616;28;20039;-75
2021/09/12 06:17:39;;;;;;;19.00;12.07;;;14.80;99.90;;;;;;5035178;28;20592;-75
2021/09/12 06:20:06;;;;;;;19.45;12.38;;;14.80;99.90;;;;;;5032799;28;20127;-75
2021/09/12 06:22:33;;;;;;;16.17;10.90;;;14.90;99.90;;;;;;5086000;28;20047;-75
2021/09/12 06:24:59;;;;;;;18.95;12.40;;;14.90;99.90;;;;;;5065173;28;20036;-76
2021/09/12 06:27:25;;;;;;;18.20;12.25;;;14.90;99.90;;;;;;5034806;28;20044;-75
2021/09/12 06:29:52;;;;;;;20.15;13.00;;;15.00;99.90;;;;;;5048727;28;20051;-74
2021/09/12 06:32:18;;;;;;;22.42;13.45;;;15.00;99.90;;;;;;5070436;28;20028;-75
2021/09/12 06:34:45;;;;;;;21.23;13.93;;;15.10;99.90;;;;;;5063380;28;20059;-75
2021/09/12 06:37:11;;;;;;;20.33;13.73;;;15.10;99.90;;;;;;5054807;28;20110;-75
2021/09/12 06:39:39;;;;;;;18.90;12.43;;;15.20;99.90;;;;;;5047584;28;20514;-76
2021/09/12 06:42:05;;;;;;;21.10;13.55;;;15.30;99.90;;;;;;5051044;28;20040;-75
2021/09/12 06:44:32;;;;;;;23.45;12.10;;;15.40;99.90;;;;;;5048994;28;20364;-75
2021/09/12 06:47:00;;;;;;;17.73;11.23;;;15.50;99.90;;;;;;5031992;28;20047;-75
2021/09/12 06:49:27;;;;;;;25.08;14.23;;;15.60;99.90;;;;;;5049764;28;20028;-75
2021/09/12 06:51:53;;;;;;;18.75;13.30;;;15.70;99.90;;;;;;5033911;28;20054;-75
2021/09/12 06:54:20;;;;;;;20.17;13.13;;;15.80;99.90;;;;;;5063166;28;20052;-75
2021/09/12 06:56:46;;;;;;;19.42;13.20;;;15.90;99.90;;;;;;5051545;28;20036;-75
2021/09/12 06:59:12;;;;;;;19.45;12.80;;;16.00;99.90;;;;;;5062931;28;20036;-75
2021/09/12 07:01:39;;;;;;;22.73;12.95;;;16.00;99.90;;;;;;5063542;28;20039;-76
2021/09/12 07:04:05;;;;;;;18.85;12.85;;;16.10;99.90;;;;;;5030186;28;20048;-75
2021/09/12 07:06:32;;;;;;;19.40;13.40;;;16.20;99.90;;;;;;5061937;28;20043;-75
2021/09/12 07:08:58;;;;;;;19.73;12.70;;;16.30;99.90;;;;;;5063222;28;20029;-75
2021/09/12 07:11:25;;;;;;;16.45;10.48;;;16.40;99.90;;;;;;5064409;28;20032;-75
2021/09/12 07:13:51;;;;;;;20.25;11.90;;;16.50;99.90;;;;;;5045777;28;20593;-75
2021/09/12 07:16:18;;;;;;;16.08;11.10;;;16.50;99.90;;;;;;5060895;28;20427;-75
2021/09/12 07:18:44;;;;;;;20.38;12.20;;;16.50;99.90;;;;;;5046178;28;20435;-75
2021/09/12 07:21:11;;;;;;;21.25;11.75;;;16.50;99.90;;;;;;5045681;28;20041;-74
2021/09/12 07:23:37;;;;;;;16.50;10.65;;;16.50;99.90;;;;;;5045831;28;20063;-74
2021/09/12 07:26:04;;;;;;;19.80;12.00;;;16.50;99.90;;;;;;5062899;28;20029;-74
2021/09/12 07:28:31;;;;;;;13.25;8.90;;;16.60;99.90;;;;;;5063236;28;20039;-74
2021/09/12 07:30:57;;;;;;;18.88;10.48;;;16.60;99.90;;;;;;5061710;28;20043;-75
2021/09/12 07:33:23;;;;;;;17.48;9.82;;;16.60;99.90;;;;;;5064272;28;20483;-75
2021/09/12 07:35:50;;;;;;;17.30;10.32;;;16.70;99.90;;;;;;5062864;28;20040;-75
2021/09/12 07:38:16;;;;;;;16.10;9.60;;;16.90;99.90;;;;;;5063202;28;20036;-75
2021/09/12 07:40:43;;;;;;;16.33;9.18;;;16.90;99.90;;;;;;5059964;28;20040;-75
2021/09/12 07:43:10;;;;;;;13.55;9.38;;;17.10;99.90;;;;;;5064249;28;20040;-76
2021/09/12 07:45:36;;;;;;;12.48;8.30;;;17.30;99.90;;;;;;5062736;28;20024;-75
2021/09/12 07:48:04;;;;;;;15.68;8.68;;;17.50;99.90;;;;;;5062702;28;20040;-76
2021/09/12 07:50:31;;;;;;;13.10;8.63;;;17.70;99.90;;;;;;5060728;28;20040;-76
2021/09/12 07:52:57;;;;;;;17.85;8.70;;;17.70;99.90;;;;;;5063099;28;20039;-75
2021/09/12 07:55:24;;;;;;;12.52;9.02;;;17.70;99.90;;;;;;5065808;28;20040;-76
2021/09/12 07:57:50;;;;;;;14.63;8.40;;;17.80;99.90;;;;;;5081241;28;20028;-74
2021/09/12 08:00:17;;;;;;;14.48;8.85;;;17.80;99.90;;;;;;5061146;28;20505;-74
2021/09/12 08:02:44;;;;;;;16.85;9.82;;;17.90;99.90;;;;;;5083237;28;20036;-75
2021/09/12 08:05:11;;;;;;;14.68;8.90;;;17.90;99.90;;;;;;5083765;28;20503;-75
2021/09/12 08:07:38;;;;;;;14.45;7.20;;;18.00;99.90;;;;;;5046305;28;20699;-75
2021/09/12 08:10:06;;;;;;;16.35;8.70;;;18.00;99.90;;;;;;5086579;28;20035;-75
2021/09/12 08:12:32;;;;;;;15.90;8.93;;;18.10;99.90;;;;;;5081039;28;20036;-75
2021/09/12 08:14:59;;;;;;;11.90;7.85;;;18.20;99.90;;;;;;5079240;28;20044;-75
2021/09/12 08:17:25;;;;;;;16.75;10.10;;;18.20;99.90;;;;;;5083168;28;20032;-75
2021/09/12 08:19:52;;;;;;;13.32;7.70;;;18.30;99.90;;;;;;5081305;28;20045;-75
2021/09/12 08:22:18;;;;;;;14.93;9.75;;;18.40;99.90;;;;;;5083501;28;20098;-74
2021/09/12 08:24:45;;;;;;;14.60;8.07;;;18.50;99.90;;;;;;5061704;28;20052;-76
2021/09/12 08:27:11;;;;;;;17.98;9.00;;;18.50;99.90;;;;;;5079611;28;20039;-74
2021/09/12 08:29:38;;;;;;;14.98;8.60;;;18.50;99.90;;;;;;5080392;28;20036;-76
2021/09/12 08:32:05;;;;;;;14.35;7.93;;;18.50;99.90;;;;;;5064368;28;20063;-75
2021/09/12 08:34:32;;;;;;;13.20;8.27;;;18.70;99.90;;;;;;5047106;28;20044;-75
2021/09/12 08:36:58;;;;;;;13.00;8.05;;;18.80;99.90;;;;;;5083261;28;20051;-80
2021/09/12 08:39:25;;;;;;;13.73;7.88;;;18.80;99.90;;;;;;5045824;28;20052;-80
2021/09/12 08:41:52;;;;;;;13.80;9.40;;;18.80;99.90;;;;;;5048293;28;20056;-75
2021/09/12 08:44:20;;;;;;;17.08;10.02;;;18.90;99.90;;;;;;5082441;28;20028;-75
2021/09/12 08:46:48;;;;;;;17.30;10.30;;;18.90;99.90;;;;;;5061936;28;20036;-74
2021/09/12 08:49:17;;;;;;;19.45;9.15;;;18.90;99.90;;;;;;5060698;28;20043;-75
2021/09/12 08:51:44;;;;;;;12.80;9.10;;;19.00;99.90;;;;;;5082676;28;20043;-75
2021/09/12 08:54:10;;;;;;;13.75;9.80;;;19.00;99.90;;;;;;5081668;28;20051;-75
2021/09/12 08:56:37;;;;;;;15.20;9.27;;;19.00;99.90;;;;;;5082875;28;20039;-75
2021/09/12 08:59:20;;;;;;;14.27;9.85;;;19.20;99.90;;;;;;5079801;28;21215;-75
2021/09/12 09:01:47;;;;;;;14.60;10.60;;;19.30;99.90;;;;;;5061861;28;20036;-75
2021/09/12 09:04:13;;;;;;;13.95;9.70;;;19.40;99.90;;;;;;5064345;28;20028;-75
2021/09/12 09:06:40;;;;;;;17.25;11.10;;;19.60;99.90;;;;;;5081461;28;20051;-75
2021/09/12 09:09:06;;;;;;;16.50;10.05;;;19.70;99.90;;;;;;5063463;28;20040;-75
2021/09/12 09:11:39;;;;;;;16.13;9.90;;;19.80;99.90;;;;;;5080027;28;20820;-75
2021/09/12 09:14:13;;;;;;;;;;;19.80;99.90;;;;;;5081686;28;20032;-75
2021/09/12 09:16:40;;;;;;;18.15;10.30;;;19.90;99.90;;;;;;5082946;28;19924;-75
2021/09/12 09:19:08;;;;;;;16.48;10.18;;;19.90;99.90;;;;;;5078092;28;20391;-75
2021/09/12 09:21:43;;;;;;;12.10;9.60;;;19.90;99.90;;;;;;5085442;28;20407;-75
2021/09/12 09:24:25;;;;;;;16.42;9.88;;;20.00;99.90;;;;;;5086894;28;20471;-75
2021/09/12 09:26:55;;;;;;;16.45;10.70;;;20.10;99.90;;;;;;5083965;28;20035;-74
2021/09/12 09:29:24;;;;;;;13.68;10.20;;;20.20;99.90;;;;;;5082913;28;20034;-76
2021/09/12 09:32:11;;;;;;;16.50;9.43;;;20.30;99.90;;;;;;5088757;28;20054;-76
2021/09/12 09:34:40;;;;;;;11.93;7.30;;;20.30;99.90;;;;;;5083388;28;20036;-75
2021/09/12 09:37:15;;;;;;;11.43;6.90;;;20.40;99.90;;;;;;5065729;28;20431;-75
2021/09/12 09:39:52;;;;;;;10.82;7.03;;;20.40;99.90;;;;;;5086134;28;20028;-75
2021/09/12 09:42:39;;;;;;;13.05;8.02;;;20.40;99.90;;;;;;5082258;28;20032;-75
2021/09/12 09:45:09;;;;;;;11.20;8.00;;;20.50;99.90;;;;;;5068135;28;20043;-77
2021/09/12 09:47:37;;;;;;;10.13;7.70;;;20.70;99.90;;;;;;5033793;28;20415;-77
2021/09/12 09:50:24;;;;;;;14.55;8.15;;;20.90;99.90;;;;;;5085942;28;20483;-78
2021/09/12 09:52:55;;;;;;;13.70;8.00;;;21.10;99.90;;;;;;5082943;28;20024;-77
2021/09/12 09:55:26;;;;;;;15.13;7.55;;;21.30;99.90;;;;;;5050553;28;20032;-75
2021/09/12 09:57:54;;;;;;;12.18;7.43;;;21.50;99.90;;;;;;5083325;28;20047;-77
2021/09/12 10:00:23;;;;;;;10.13;6.85;;;21.50;99.90;;;;;;5081649;28;20031;-75
2021/09/12 10:02:50;;;;;;;9.43;7.38;;;21.60;99.90;;;;;;5067474;28;20044;-75
2021/09/12 10:05:17;;;;;;;14.30;7.05;;;21.70;99.90;;;;;;5085016;28;20078;-75
2021/09/12 10:07:44;;;;;;;10.85;7.40;;;21.80;99.90;;;;;;5083103;28;20036;-75
2021/09/12 10:10:13;;;;;;;11.52;7.20;;;21.90;99.90;;;;;;5081400;28;20028;-75
2021/09/12 10:12:51;;;;;;;10.40;6.63;;;22.00;99.90;;;;;;5085485;28;20055;-75
2021/09/12 10:15:21;;;;;;;13.82;7.60;;;22.00;99.90;;;;;;5063579;28;20032;-75
2021/09/12 10:17:49;;;;;;;13.27;7.13;;;22.00;99.90;;;;;;5084601;28;20126;-75
2021/09/12 10:20:21;;;;;;;11.50;7.40;;;21.90;99.90;;;;;;5084810;28;20036;-75
2021/09/12 10:23:02;;;;;;;10.15;7.25;;;21.90;99.90;;;;;;5066253;28;20047;-75
2021/09/12 10:25:48;;;;;;;10.70;6.45;;;21.80;99.90;;;;;;5085226;28;20041;-75
2021/09/12 10:28:35;;;;;;;11.85;7.43;;;21.80;99.90;;;;;;5082802;28;20430;-79
2021/09/12 10:31:26;;;;;;;12.10;7.20;;;21.60;99.90;;;;;;5049118;28;20041;-84
2021/09/12 10:34:22;;;;;;;11.40;7.85;;;21.50;99.90;;;;;;5086312;28;20032;-83
2021/09/12 10:36:49;;;;;;;11.48;7.05;;;21.50;99.90;;;;;;5055105;28;20055;-83
2021/09/12 10:39:36;;;;;;;17.33;8.70;;;21.40;99.90;;;;;;5051515;28;20036;-83
2021/09/12 10:42:12;;;;;;;12.82;8.23;;;21.30;99.90;;;;;;5084837;28;20032;-82
2021/09/12 10:44:39;;;;;;;12.52;8.02;;;21.20;99.90;;;;;;5066689;28;20028;-82
2021/09/12 10:47:07;;;;;;;12.70;7.88;;;21.10;99.90;;;;;;5066259;28;20036;-83
2021/09/12 10:49:33;;;;;;;11.57;9.38;;;21.10;99.90;;;;;;5055602;28;20051;-83
2021/09/12 10:52:00;;;;;;;13.40;9.48;;;21.10;99.90;;;;;;5067416;28;20039;-82
2021/09/12 10:54:26;;;;;;;15.70;10.07;;;21.20;99.90;;;;;;5053050;28;20051;-83
2021/09/12 10:57:09;;;;;;;12.10;8.60;;;21.20;99.90;;;;;;5032339;28;20495;-86
2021/09/12 10:59:35;;;;;;;11.80;7.57;;;21.10;99.90;;;;;;5050195;28;20894;-86
2021/09/12 11:02:02;;;;;;;9.75;7.65;;;21.20;99.90;;;;;;5047787;28;20395;-89
2021/09/12 11:04:30;;;;;;;11.38;8.18;;;21.20;99.90;;;;;;5052402;28;20043;-89
2021/09/12 11:07:03;;;;;;;11.90;9.02;;;21.40;99.90;;;;;;5034828;28;20048;-85
2021/09/12 11:09:30;;;;;;;;;;;21.50;99.90;;;;;;5085851;28;20032;-86
2021/09/12 11:12:02;;;;;;;14.13;10.02;;;21.60;99.90;;;;;;5067435;28;19916;-78
2021/09/12 11:14:30;;;;;;;12.35;8.75;;;21.80;99.90;;;;;;5082314;28;20383;-80
2021/09/12 11:17:11;;;;;;;12.82;9.10;;;22.00;99.90;;;;;;5065107;28;20035;-79
2021/09/12 11:19:49;;;;;;;15.23;11.57;;;22.20;99.90;;;;;;5064499;28;20039;-78
2021/09/12 11:22:15;;;;;;;14.95;11.25;;;22.40;99.90;;;;;;5051758;28;20040;-78
2021/09/12 11:24:42;;;;;;;17.00;10.63;;;22.80;99.90;;;;;;5082816;28;20471;-79
2021/09/12 11:27:08;;;;;;;14.05;9.70;;;23.20;99.90;;;;;;5063433;28;20036;-79
2021/09/12 11:29:37;;;;;;;14.43;10.68;;;23.40;99.90;;;;;;5048533;28;20052;-79
2021/09/12 11:32:09;;;;;;;15.93;10.45;;;23.50;99.90;;;;;;5086721;28;20035;-79
2021/09/12 11:34:41;;;;;;;16.05;11.93;;;23.50;99.90;;;;;;5064900;28;20036;-80
2021/09/12 11:37:11;;;;;;;20.58;11.98;;;23.40;99.90;;;;;;5065286;28;20029;-84
2021/09/12 11:39:43;;;;;;;16.23;12.18;;;23.10;99.90;;;;;;5047718;28;20044;-84
2021/09/12 11:42:11;;;;;;;;;;;22.90;99.90;;;;;;5065558;28;20362;-84
2021/09/12 11:44:40;;;;;;;18.38;12.13;;;22.70;99.90;;;;;;5050042;28;19911;-77
2021/09/12 11:47:11;;;;;;;17.38;12.80;;;22.70;99.90;;;;;;5082624;28;20576;-79
2021/09/12 11:49:39;;;;;;;17.38;12.02;;;22.70;99.90;;;;;;5065476;28;20032;-79
2021/09/12 11:52:08;;;;;;;16.73;11.20;;;22.80;99.90;;;;;;5083258;28;20042;-80
2021/09/12 11:54:35;;;;;;;14.13;11.07;;;23.00;99.90;;;;;;5082800;28;20048;-78
2021/09/12 11:57:06;;;;;;;18.08;12.55;;;23.00;99.90;;;;;;5047571;28;20519;-80
2021/09/12 11:59:35;;;;;;;14.35;10.85;;;22.90;99.90;;;;;;5046217;28;20059;-79
2021/09/12 12:02:02;;;;;;;16.48;11.73;;;22.80;99.90;;;;;;5047741;28;20028;-80
2021/09/12 12:04:31;;;;;;;19.45;12.85;;;22.70;99.90;;;;;;5065875;28;20039;-79
2021/09/12 12:06:59;;;;;;;14.90;12.00;;;22.70;99.90;;;;;;5083794;28;20381;-81
2021/09/12 12:09:49;;;;;;;16.92;11.30;;;22.70;99.90;;;;;;5083041;28;20040;-80
2021/09/12 12:12:17;;;;;;;12.77;10.50;;;22.80;99.90;;;;;;5048469;28;20518;-81
2021/09/12 12:14:47;;;;;;;13.55;10.50;;;23.20;99.90;;;;;;5063646;28;20043;-80
2021/09/12 12:17:16;;;;;;;13.65;10.23;;;23.80;99.90;;;;;;5062423;28;20016;-80
2021/09/12 12:19:43;;;;;;;11.43;9.25;;;24.30;99.90;;;;;;5046445;28;20044;-80
2021/09/12 12:22:10;;;;;;;13.48;10.07;;;24.80;99.30;;;;;;5049351;28;20039;-80
2021/09/12 12:24:38;;;;;;;14.23;9.98;;;25.10;98.10;;;;;;5047284;28;20514;-80
2021/09/12 12:27:10;;;;;;;12.13;9.30;;;25.40;97.50;;;;;;5065484;28;20055;-80
2021/09/12 12:29:40;;;;;;;13.95;10.27;;;25.80;97.10;;;;;;5063904;28;20043;-79
2021/09/12 12:32:09;;;;;;;14.60;11.02;;;26.00;96.20;;;;;;5063496;28;20046;-79
2021/09/12 12:34:40;;;;;;;13.93;10.57;;;26.10;95.50;;;;;;5082673;28;20036;-87
2021/09/12 12:37:10;;;;;;;11.13;9.70;;;25.80;95.30;;;;;;5065694;28;20024;-87
2021/09/12 12:39:37;;;;;;;13.65;12.27;;;25.90;95.50;;;;;;5065599;28;20036;-86